<?xml version="1.0" encoding="UTF-8" standalone="no" ?>
<gpx xmlns="http://www.topografix.com/GPX/1/1" xmlns:xsi="http://www.w3.org/2001/XMLSchema-instance" xsi:schemaLocation="http://www.topografix.com/GPX/1/1 http://www.topografix.com/GPX/1/1/gpx.xsd" version="1.1" creator="VisuGPX - https://www.visugpx.com">
  <metadata>
    <name>Rando LN</name>
  </metadata>
  <trk>
    <name><![CDATA[Cardaillac]]></name>
    <extensions>
      <line xmlns="http://www.topografix.com/GPX/gpx_style/0/2">
        <color>ff00f7</color>
        <width>4</width>
      </line>
    </extensions>
    <trkseg>
      <trkpt lat="44.73964" lon="1.82826">
        <ele>327.203</ele>
        <time>2015-08-04T17:51:35Z</time>
      </trkpt>
      <trkpt lat="44.73964" lon="1.82826">
        <ele>327.203</ele>
        <time>2015-08-04T17:51:35Z</time>
      </trkpt>
      <trkpt lat="44.73964" lon="1.82826">
        <ele>327.203</ele>
        <time>2015-08-04T17:51:35Z</time>
      </trkpt>
      <trkpt lat="44.73964" lon="1.82826">
        <ele>327.203</ele>
        <time>2015-08-04T17:51:35Z</time>
      </trkpt>
      <trkpt lat="44.73964" lon="1.82826">
        <ele>327.203</ele>
        <time>2015-08-04T17:51:35Z</time>
      </trkpt>
      <trkpt lat="44.73964" lon="1.82826">
        <ele>327.203</ele>
        <time>2015-08-04T17:51:35Z</time>
      </trkpt>
      <trkpt lat="44.73972" lon="1.82861">
        <ele>324.023</ele>
        <time>2015-08-04T17:51:55Z</time>
      </trkpt>
      <trkpt lat="44.73965" lon="1.82882">
        <ele>322.708</ele>
        <time>2015-08-04T17:52:15Z</time>
      </trkpt>
      <trkpt lat="44.74024" lon="1.82992">
        <ele>324.261</ele>
        <time>2015-08-04T17:52:35Z</time>
      </trkpt>
      <trkpt lat="44.74053" lon="1.83074">
        <ele>320.536</ele>
        <time>2015-08-04T17:52:55Z</time>
      </trkpt>
      <trkpt lat="44.74152" lon="1.83248">
        <ele>315.056</ele>
        <time>2015-08-04T17:53:15Z</time>
      </trkpt>
      <trkpt lat="44.74152" lon="1.83289">
        <ele>312.548</ele>
        <time>2020-03-06T22:31:57Z</time>
      </trkpt>
      <trkpt lat="44.74167" lon="1.83341">
        <ele>312.03</ele>
        <time>2015-08-04T17:53:55Z</time>
      </trkpt>
      <trkpt lat="44.74161" lon="1.83442">
        <ele>315.081</ele>
        <time>2015-08-04T17:54:15Z</time>
      </trkpt>
      <trkpt lat="44.74056" lon="1.83557">
        <ele>339.997</ele>
        <time>2015-08-04T17:54:35Z</time>
      </trkpt>
      <trkpt lat="44.74038" lon="1.83619">
        <ele>339.249</ele>
        <time>2015-08-04T17:54:55Z</time>
      </trkpt>
      <trkpt lat="44.74047" lon="1.83634">
        <ele>337.653</ele>
        <time>2015-08-04T17:55:15Z</time>
      </trkpt>
      <trkpt lat="44.74053" lon="1.83692">
        <ele>334.404</ele>
        <time>2015-08-04T17:55:35Z</time>
      </trkpt>
      <trkpt lat="44.74108" lon="1.83735">
        <ele>328.514</ele>
        <time>2015-08-04T17:55:55Z</time>
      </trkpt>
      <trkpt lat="44.74169" lon="1.83775">
        <ele>332.808</ele>
        <time>2015-08-04T17:56:15Z</time>
      </trkpt>
      <trkpt lat="44.74165" lon="1.8383">
        <ele>333.121</ele>
        <time>2015-08-04T17:56:35Z</time>
      </trkpt>
      <trkpt lat="44.74144" lon="1.83882">
        <ele>334.596</ele>
        <time>2015-08-04T17:56:55Z</time>
      </trkpt>
      <trkpt lat="44.74154" lon="1.83925">
        <ele>330.126</ele>
        <time>2015-08-04T17:57:15Z</time>
      </trkpt>
      <trkpt lat="44.74154" lon="1.83961">
        <ele>326.818</ele>
        <time>2015-08-04T17:57:35Z</time>
      </trkpt>
      <trkpt lat="44.74157" lon="1.83977">
        <ele>324.49</ele>
        <time>2015-08-04T17:57:55Z</time>
      </trkpt>
      <trkpt lat="44.74147" lon="1.84025">
        <ele>325.991</ele>
        <time>2015-08-04T17:58:15Z</time>
      </trkpt>
      <trkpt lat="44.74176" lon="1.84071">
        <ele>322.417</ele>
        <time>2015-08-04T17:58:35Z</time>
      </trkpt>
      <trkpt lat="44.74249" lon="1.84149">
        <ele>324.529</ele>
        <time>2015-08-04T17:58:55Z</time>
      </trkpt>
      <trkpt lat="44.74279" lon="1.8417">
        <ele>318.191</ele>
        <time>2015-08-04T17:59:15Z</time>
      </trkpt>
      <trkpt lat="44.74321" lon="1.8419">
        <ele>319.581</ele>
        <time>2015-08-04T17:59:35Z</time>
      </trkpt>
      <trkpt lat="44.74373" lon="1.8424">
        <ele>322.219</ele>
        <time>2015-08-04T17:59:55Z</time>
      </trkpt>
      <trkpt lat="44.74426" lon="1.84308">
        <ele>323.408</ele>
        <time>2015-08-04T18:00:15Z</time>
      </trkpt>
      <trkpt lat="44.7444" lon="1.84336">
        <ele>324.345</ele>
        <time>2015-08-04T18:00:35Z</time>
      </trkpt>
      <trkpt lat="44.74479" lon="1.84434">
        <ele>334.77</ele>
        <time>2015-08-04T18:00:55Z</time>
      </trkpt>
      <trkpt lat="44.74476" lon="1.84493">
        <ele>333.63</ele>
        <time>2015-08-04T18:01:15Z</time>
      </trkpt>
      <trkpt lat="44.74488" lon="1.84547">
        <ele>331.332</ele>
        <time>2015-08-04T18:01:35Z</time>
      </trkpt>
      <trkpt lat="44.74341" lon="1.84617">
        <ele>333.994</ele>
        <time>2020-03-06T22:40:17Z</time>
      </trkpt>
      <trkpt lat="44.7444" lon="1.84644">
        <ele>335.755</ele>
        <time>2015-08-04T18:02:35Z</time>
      </trkpt>
      <trkpt lat="44.74498" lon="1.84862">
        <ele>345.121</ele>
        <time>2015-08-04T18:02:55Z</time>
      </trkpt>
      <trkpt lat="44.74532" lon="1.84915">
        <ele>343.983</ele>
        <time>2015-08-04T18:03:15Z</time>
      </trkpt>
      <trkpt lat="44.74492" lon="1.85057">
        <ele>347.489</ele>
        <time>2015-08-04T18:03:35Z</time>
      </trkpt>
      <trkpt lat="44.74425" lon="1.85229">
        <ele>348.506</ele>
        <time>2015-08-04T18:03:55Z</time>
      </trkpt>
      <trkpt lat="44.74365" lon="1.85309">
        <ele>348.926</ele>
        <time>2015-08-04T18:04:15Z</time>
      </trkpt>
      <trkpt lat="44.74288" lon="1.8544">
        <ele>348.808</ele>
        <time>2015-08-04T18:04:35Z</time>
      </trkpt>
      <trkpt lat="44.74271" lon="1.85499">
        <ele>348.254</ele>
        <time>2015-08-04T18:04:55Z</time>
      </trkpt>
      <trkpt lat="44.74246" lon="1.85505">
        <ele>349.079</ele>
        <time>2015-08-04T18:05:15Z</time>
      </trkpt>
      <trkpt lat="44.74219" lon="1.8553">
        <ele>348.849</ele>
        <time>2015-08-04T18:05:35Z</time>
      </trkpt>
      <trkpt lat="44.7419" lon="1.85581">
        <ele>345.461</ele>
        <time>2015-08-04T18:05:55Z</time>
      </trkpt>
      <trkpt lat="44.74161" lon="1.8565">
        <ele>342.093</ele>
        <time>2015-08-04T18:06:15Z</time>
      </trkpt>
      <trkpt lat="44.74004" lon="1.85719">
        <ele>350.494</ele>
        <time>2015-08-04T18:06:35Z</time>
      </trkpt>
      <trkpt lat="44.73992" lon="1.85727">
        <ele>352.15</ele>
        <time>2015-08-04T18:06:55Z</time>
      </trkpt>
      <trkpt lat="44.73893" lon="1.85869">
        <ele>361.082</ele>
        <time>2015-08-04T18:07:15Z</time>
      </trkpt>
      <trkpt lat="44.73866" lon="1.85889">
        <ele>364.314</ele>
        <time>2015-08-04T18:07:35Z</time>
      </trkpt>
      <trkpt lat="44.73797" lon="1.85924">
        <ele>361.954</ele>
        <time>2015-08-04T18:07:55Z</time>
      </trkpt>
      <trkpt lat="44.73746" lon="1.85942">
        <ele>365.209</ele>
        <time>2015-08-04T18:08:15Z</time>
      </trkpt>
      <trkpt lat="44.73706" lon="1.85976">
        <ele>369.608</ele>
        <time>2015-08-04T18:08:35Z</time>
      </trkpt>
      <trkpt lat="44.73626" lon="1.86087">
        <ele>368.247</ele>
        <time>2015-08-04T18:08:55Z</time>
      </trkpt>
      <trkpt lat="44.73626" lon="1.86107">
        <ele>368.952</ele>
        <time>2015-08-04T18:09:15Z</time>
      </trkpt>
      <trkpt lat="44.73615" lon="1.86116">
        <ele>368.582</ele>
        <time>2015-08-04T18:09:35Z</time>
      </trkpt>
      <trkpt lat="44.73592" lon="1.86164">
        <ele>368.344</ele>
        <time>2015-08-04T18:09:55Z</time>
      </trkpt>
      <trkpt lat="44.73657" lon="1.86224">
        <ele>366.936</ele>
        <time>2015-08-04T18:10:15Z</time>
      </trkpt>
      <trkpt lat="44.73676" lon="1.86246">
        <ele>366.197</ele>
        <time>2015-08-04T18:10:35Z</time>
      </trkpt>
      <trkpt lat="44.73692" lon="1.86299">
        <ele>365.153</ele>
        <time>2015-08-04T18:10:55Z</time>
      </trkpt>
      <trkpt lat="44.73702" lon="1.86353">
        <ele>365.065</ele>
        <time>2015-08-04T18:11:15Z</time>
      </trkpt>
      <trkpt lat="44.73695" lon="1.86397">
        <ele>364.071</ele>
        <time>2015-08-04T18:11:35Z</time>
      </trkpt>
      <trkpt lat="44.73688" lon="1.86477">
        <ele>365.841</ele>
        <time>2015-08-04T18:11:55Z</time>
      </trkpt>
      <trkpt lat="44.73678" lon="1.86521">
        <ele>367.115</ele>
        <time>2015-08-04T18:12:15Z</time>
      </trkpt>
      <trkpt lat="44.7366" lon="1.86642">
        <ele>375.908</ele>
        <time>2015-08-04T18:12:35Z</time>
      </trkpt>
      <trkpt lat="44.73635" lon="1.8686">
        <ele>377.653</ele>
        <time>2015-08-04T18:12:55Z</time>
      </trkpt>
      <trkpt lat="44.73582" lon="1.87232">
        <ele>396.138</ele>
        <time>2015-08-04T18:13:15Z</time>
      </trkpt>
      <trkpt lat="44.73579" lon="1.8727">
        <ele>397.188</ele>
        <time>2015-08-04T18:13:35Z</time>
      </trkpt>
      <trkpt lat="44.73565" lon="1.87395">
        <ele>401.31</ele>
        <time>2015-08-04T18:13:55Z</time>
      </trkpt>
      <trkpt lat="44.73563" lon="1.87446">
        <ele>402.282</ele>
        <time>2015-08-04T18:14:15Z</time>
      </trkpt>
      <trkpt lat="44.73554" lon="1.87488">
        <ele>401.543</ele>
        <time>2015-08-04T18:14:35Z</time>
      </trkpt>
      <trkpt lat="44.73505" lon="1.87427">
        <ele>408.649</ele>
        <time>2015-08-04T18:14:55Z</time>
      </trkpt>
      <trkpt lat="44.73478" lon="1.87412">
        <ele>410.481</ele>
        <time>2015-08-04T18:15:15Z</time>
      </trkpt>
      <trkpt lat="44.73409" lon="1.87396">
        <ele>414.376</ele>
        <time>2015-08-04T18:15:35Z</time>
      </trkpt>
      <trkpt lat="44.73365" lon="1.87407">
        <ele>415.99</ele>
        <time>2015-08-04T18:15:55Z</time>
      </trkpt>
      <trkpt lat="44.73232" lon="1.87497">
        <ele>411.219</ele>
        <time>2015-08-04T18:16:15Z</time>
      </trkpt>
      <trkpt lat="44.73083" lon="1.87604">
        <ele>408.008</ele>
        <time>2015-08-04T18:16:35Z</time>
      </trkpt>
      <trkpt lat="44.72975" lon="1.87665">
        <ele>403.253</ele>
        <time>2015-08-04T18:16:55Z</time>
      </trkpt>
      <trkpt lat="44.72838" lon="1.87752">
        <ele>394.378</ele>
        <time>2015-08-04T18:17:15Z</time>
      </trkpt>
      <trkpt lat="44.72741" lon="1.87739">
        <ele>385.228</ele>
        <time>2020-11-25T19:05:20Z</time>
      </trkpt>
      <trkpt lat="44.72655" lon="1.87751">
        <ele>376.31</ele>
        <time>2020-11-25T19:05:40Z</time>
      </trkpt>
      <trkpt lat="44.72537" lon="1.87675">
        <ele>365.162</ele>
        <time>2020-11-25T19:06:00Z</time>
      </trkpt>
      <trkpt lat="44.72434" lon="1.87633">
        <ele>357.173</ele>
        <time>2020-11-25T19:06:20Z</time>
      </trkpt>
      <trkpt lat="44.72362" lon="1.87727">
        <ele>354.079</ele>
        <time>2020-11-25T19:06:40Z</time>
      </trkpt>
      <trkpt lat="44.72384" lon="1.87759">
        <ele>354.851</ele>
        <time>2020-11-25T19:07:00Z</time>
      </trkpt>
      <trkpt lat="44.7227" lon="1.8791">
        <ele>348.356</ele>
        <time>2020-11-25T19:07:20Z</time>
      </trkpt>
      <trkpt lat="44.72178" lon="1.88074">
        <ele>353.659</ele>
        <time>2020-11-25T19:07:40Z</time>
      </trkpt>
      <trkpt lat="44.72159" lon="1.8808">
        <ele>353.414</ele>
        <time>2020-11-25T19:08:00Z</time>
      </trkpt>
      <trkpt lat="44.72118" lon="1.8817">
        <ele>355.508</ele>
        <time>2015-08-04T18:21:15Z</time>
      </trkpt>
      <trkpt lat="44.72122" lon="1.882">
        <ele>355.611</ele>
        <time>2020-03-06T22:59:17Z</time>
      </trkpt>
      <trkpt lat="44.7206" lon="1.88361">
        <ele>359.356</ele>
        <time>2020-03-06T22:59:37Z</time>
      </trkpt>
      <trkpt lat="44.72136" lon="1.88454">
        <ele>362.976</ele>
        <time>2015-08-04T18:22:35Z</time>
      </trkpt>
      <trkpt lat="44.72138" lon="1.88503">
        <ele>365.378</ele>
        <time>2015-08-04T18:22:55Z</time>
      </trkpt>
      <trkpt lat="44.72131" lon="1.88575">
        <ele>369.41</ele>
        <time>2015-08-04T18:23:15Z</time>
      </trkpt>
      <trkpt lat="44.72134" lon="1.88677">
        <ele>374.311</ele>
        <time>2015-08-04T18:23:35Z</time>
      </trkpt>
      <trkpt lat="44.72108" lon="1.88822">
        <ele>379.847</ele>
        <time>2015-08-04T18:23:55Z</time>
      </trkpt>
      <trkpt lat="44.71998" lon="1.89131">
        <ele>386.179</ele>
        <time>2015-08-04T18:24:15Z</time>
      </trkpt>
      <trkpt lat="44.71986" lon="1.89225">
        <ele>386.097</ele>
        <time>2015-08-04T18:24:35Z</time>
      </trkpt>
      <trkpt lat="44.71985" lon="1.89312">
        <ele>385.623</ele>
        <time>2015-08-04T18:24:55Z</time>
      </trkpt>
      <trkpt lat="44.71968" lon="1.89383">
        <ele>387.225</ele>
        <time>2015-08-04T18:25:15Z</time>
      </trkpt>
      <trkpt lat="44.7196" lon="1.89472">
        <ele>388.708</ele>
        <time>2015-08-04T18:25:35Z</time>
      </trkpt>
      <trkpt lat="44.71937" lon="1.89594">
        <ele>393.215</ele>
        <time>2015-08-04T18:25:55Z</time>
      </trkpt>
      <trkpt lat="44.7195" lon="1.89668">
        <ele>392.24</ele>
        <time>2015-08-04T18:26:15Z</time>
      </trkpt>
      <trkpt lat="44.7196" lon="1.89694">
        <ele>391.61</ele>
        <time>2015-08-04T18:26:35Z</time>
      </trkpt>
      <trkpt lat="44.71951" lon="1.89845">
        <ele>384.582</ele>
        <time>2015-08-04T18:26:55Z</time>
      </trkpt>
      <trkpt lat="44.71982" lon="1.89962">
        <ele>378.144</ele>
        <time>2015-08-04T18:27:15Z</time>
      </trkpt>
      <trkpt lat="44.71983" lon="1.90073">
        <ele>375.095</ele>
        <time>2015-08-04T18:27:35Z</time>
      </trkpt>
      <trkpt lat="44.71978" lon="1.90123">
        <ele>375.221</ele>
        <time>2015-08-04T18:27:55Z</time>
      </trkpt>
      <trkpt lat="44.71989" lon="1.90263">
        <ele>380.983</ele>
        <time>2015-08-04T18:28:15Z</time>
      </trkpt>
      <trkpt lat="44.72003" lon="1.90337">
        <ele>383.618</ele>
        <time>2015-08-04T18:28:35Z</time>
      </trkpt>
      <trkpt lat="44.72006" lon="1.90479">
        <ele>395.098</ele>
        <time>2015-08-04T18:28:55Z</time>
      </trkpt>
      <trkpt lat="44.72017" lon="1.90582">
        <ele>400.917</ele>
        <time>2015-08-04T18:29:15Z</time>
      </trkpt>
      <trkpt lat="44.72028" lon="1.90744">
        <ele>392.308</ele>
        <time>2015-08-04T18:29:35Z</time>
      </trkpt>
      <trkpt lat="44.72087" lon="1.90882">
        <ele>386.087</ele>
        <time>2015-08-04T18:29:55Z</time>
      </trkpt>
      <trkpt lat="44.72163" lon="1.91217">
        <ele>361.282</ele>
        <time>2015-08-04T18:30:15Z</time>
      </trkpt>
      <trkpt lat="44.7218" lon="1.91259">
        <ele>361.292</ele>
        <time>2015-08-04T18:30:35Z</time>
      </trkpt>
      <trkpt lat="44.72258" lon="1.91378">
        <ele>361.934</ele>
        <time>2015-08-04T18:30:55Z</time>
      </trkpt>
      <trkpt lat="44.72357" lon="1.91458">
        <ele>367.416</ele>
        <time>2015-08-04T18:31:15Z</time>
      </trkpt>
      <trkpt lat="44.72511" lon="1.91626">
        <ele>367.187</ele>
        <time>2015-08-04T18:31:35Z</time>
      </trkpt>
      <trkpt lat="44.72566" lon="1.91705">
        <ele>369.883</ele>
        <time>2015-08-04T18:31:55Z</time>
      </trkpt>
      <trkpt lat="44.72612" lon="1.91787">
        <ele>373.335</ele>
        <time>2015-08-04T18:32:15Z</time>
      </trkpt>
      <trkpt lat="44.72661" lon="1.91852">
        <ele>374.971</ele>
        <time>2015-08-04T18:32:35Z</time>
      </trkpt>
      <trkpt lat="44.72666" lon="1.91864">
        <ele>375.141</ele>
        <time>2015-08-04T18:32:55Z</time>
      </trkpt>
      <trkpt lat="44.727" lon="1.91908">
        <ele>376.015</ele>
        <time>2015-08-04T18:33:15Z</time>
      </trkpt>
      <trkpt lat="44.7285" lon="1.9225">
        <ele>380.608</ele>
        <time>2015-08-04T18:33:35Z</time>
      </trkpt>
      <trkpt lat="44.72796" lon="1.92552">
        <ele>380.213</ele>
        <time>2015-08-04T18:33:55Z</time>
      </trkpt>
      <trkpt lat="44.72794" lon="1.9257">
        <ele>379.928</ele>
        <time>2015-08-05T08:06:07Z</time>
      </trkpt>
      <trkpt lat="44.72794" lon="1.9257">
        <ele>379.958</ele>
        <time>2015-08-05T08:06:07Z</time>
      </trkpt>
      <trkpt lat="44.72782" lon="1.92748">
        <ele>375.97</ele>
        <time>2015-08-05T08:06:27Z</time>
      </trkpt>
      <trkpt lat="44.72663" lon="1.92739">
        <ele>371.772</ele>
        <time>2015-08-05T08:06:47Z</time>
      </trkpt>
      <trkpt lat="44.72609" lon="1.92782">
        <ele>374.243</ele>
        <time>2015-08-05T08:07:07Z</time>
      </trkpt>
      <trkpt lat="44.72487" lon="1.92695">
        <ele>374.559</ele>
        <time>2015-08-05T08:07:27Z</time>
      </trkpt>
      <trkpt lat="44.72397" lon="1.92896">
        <ele>377.621</ele>
        <time>2015-08-05T08:07:47Z</time>
      </trkpt>
      <trkpt lat="44.72368" lon="1.92937">
        <ele>378.197</ele>
        <time>2015-08-05T08:08:07Z</time>
      </trkpt>
      <trkpt lat="44.72366" lon="1.92968">
        <ele>377.023</ele>
        <time>2015-08-05T08:08:27Z</time>
      </trkpt>
      <trkpt lat="44.72334" lon="1.93052">
        <ele>380.925</ele>
        <time>2015-08-05T08:08:47Z</time>
      </trkpt>
      <trkpt lat="44.72321" lon="1.93203">
        <ele>384.108</ele>
        <time>2015-08-05T08:09:07Z</time>
      </trkpt>
      <trkpt lat="44.72278" lon="1.93366">
        <ele>385.895</ele>
        <time>2015-08-05T08:09:27Z</time>
      </trkpt>
      <trkpt lat="44.72267" lon="1.93449">
        <ele>386.07</ele>
        <time>2015-08-05T08:09:47Z</time>
      </trkpt>
      <trkpt lat="44.72266" lon="1.93492">
        <ele>386.04</ele>
        <time>2015-08-05T08:10:07Z</time>
      </trkpt>
      <trkpt lat="44.72251" lon="1.93546">
        <ele>386.052</ele>
        <time>2015-08-05T08:10:27Z</time>
      </trkpt>
      <trkpt lat="44.72196" lon="1.93668">
        <ele>390.044</ele>
        <time>2015-08-05T08:10:47Z</time>
      </trkpt>
      <trkpt lat="44.72161" lon="1.93763">
        <ele>398.285</ele>
        <time>2015-08-05T08:11:07Z</time>
      </trkpt>
      <trkpt lat="44.72143" lon="1.93831">
        <ele>403.021</ele>
        <time>2015-08-05T08:11:27Z</time>
      </trkpt>
      <trkpt lat="44.72141" lon="1.93917">
        <ele>406.163</ele>
        <time>2015-08-05T08:11:47Z</time>
      </trkpt>
      <trkpt lat="44.72114" lon="1.94013">
        <ele>409.781</ele>
        <time>2015-08-05T08:12:07Z</time>
      </trkpt>
      <trkpt lat="44.72061" lon="1.94227">
        <ele>418.861</ele>
        <time>2015-08-05T08:12:27Z</time>
      </trkpt>
      <trkpt lat="44.72008" lon="1.94303">
        <ele>424.917</ele>
        <time>2015-08-05T08:12:47Z</time>
      </trkpt>
      <trkpt lat="44.71969" lon="1.94402">
        <ele>430.308</ele>
        <time>2015-08-05T08:13:07Z</time>
      </trkpt>
      <trkpt lat="44.71932" lon="1.9446">
        <ele>435.944</ele>
        <time>2015-08-05T08:13:27Z</time>
      </trkpt>
      <trkpt lat="44.71904" lon="1.94491">
        <ele>438.889</ele>
        <time>2015-08-05T08:13:47Z</time>
      </trkpt>
      <trkpt lat="44.71764" lon="1.94591">
        <ele>455.469</ele>
        <time>2015-08-05T08:14:07Z</time>
      </trkpt>
      <trkpt lat="44.71708" lon="1.94573">
        <ele>465.441</ele>
        <time>2015-08-05T08:14:27Z</time>
      </trkpt>
      <trkpt lat="44.71562" lon="1.94601">
        <ele>485.623</ele>
        <time>2015-08-05T08:14:47Z</time>
      </trkpt>
      <trkpt lat="44.71548" lon="1.94623">
        <ele>486.174</ele>
        <time>2015-08-05T08:15:07Z</time>
      </trkpt>
      <trkpt lat="44.71546" lon="1.94645">
        <ele>485.91</ele>
        <time>2015-08-05T08:15:27Z</time>
      </trkpt>
      <trkpt lat="44.71576" lon="1.94723">
        <ele>487.652</ele>
        <time>2015-08-05T08:15:47Z</time>
      </trkpt>
      <trkpt lat="44.71576" lon="1.94789">
        <ele>492.575</ele>
        <time>2015-08-05T08:16:07Z</time>
      </trkpt>
      <trkpt lat="44.71544" lon="1.94808">
        <ele>504.528</ele>
        <time>2015-08-05T08:16:27Z</time>
      </trkpt>
      <trkpt lat="44.71514" lon="1.94815">
        <ele>510.02</ele>
        <time>2015-08-05T08:16:47Z</time>
      </trkpt>
      <trkpt lat="44.71501" lon="1.94806">
        <ele>512.808</ele>
        <time>2015-08-05T08:17:07Z</time>
      </trkpt>
      <trkpt lat="44.7149" lon="1.94791">
        <ele>514.173</ele>
        <time>2015-08-05T08:17:27Z</time>
      </trkpt>
      <trkpt lat="44.7147" lon="1.94794">
        <ele>517.478</ele>
        <time>2015-08-05T08:17:47Z</time>
      </trkpt>
      <trkpt lat="44.71456" lon="1.9482">
        <ele>519.638</ele>
        <time>2015-08-05T08:18:07Z</time>
      </trkpt>
      <trkpt lat="44.71418" lon="1.94821">
        <ele>526.63</ele>
        <time>2015-08-05T08:18:27Z</time>
      </trkpt>
      <trkpt lat="44.7139" lon="1.94837">
        <ele>533.632</ele>
        <time>2015-08-05T08:18:47Z</time>
      </trkpt>
      <trkpt lat="44.71346" lon="1.94873">
        <ele>542.063</ele>
        <time>2015-08-05T08:19:07Z</time>
      </trkpt>
      <trkpt lat="44.71303" lon="1.94893">
        <ele>545.319</ele>
        <time>2015-08-05T08:19:27Z</time>
      </trkpt>
      <trkpt lat="44.71282" lon="1.94911">
        <ele>546.831</ele>
        <time>2015-08-05T08:19:47Z</time>
      </trkpt>
      <trkpt lat="44.7126" lon="1.94948">
        <ele>547.784</ele>
        <time>2015-08-05T08:20:07Z</time>
      </trkpt>
      <trkpt lat="44.71257" lon="1.95009">
        <ele>548.207</ele>
        <time>2015-08-05T08:20:27Z</time>
      </trkpt>
      <trkpt lat="44.71232" lon="1.95089">
        <ele>548.417</ele>
        <time>2015-08-05T08:20:47Z</time>
      </trkpt>
      <trkpt lat="44.71221" lon="1.95117">
        <ele>549.108</ele>
        <time>2015-08-05T08:21:07Z</time>
      </trkpt>
      <trkpt lat="44.71213" lon="1.95197">
        <ele>551.734</ele>
        <time>2015-08-05T08:21:27Z</time>
      </trkpt>
      <trkpt lat="44.71203" lon="1.95193">
        <ele>551.389</ele>
        <time>2015-08-05T08:21:47Z</time>
      </trkpt>
      <trkpt lat="44.71213" lon="1.95274">
        <ele>550.519</ele>
        <time>2015-08-05T08:22:07Z</time>
      </trkpt>
      <trkpt lat="44.71204" lon="1.95355">
        <ele>553.651</ele>
        <time>2015-08-05T08:22:27Z</time>
      </trkpt>
      <trkpt lat="44.71183" lon="1.95443">
        <ele>552.043</ele>
        <time>2015-08-05T08:22:47Z</time>
      </trkpt>
      <trkpt lat="44.71146" lon="1.95397">
        <ele>546.074</ele>
        <time>2015-08-05T08:23:07Z</time>
      </trkpt>
      <trkpt lat="44.71132" lon="1.95357">
        <ele>541.08</ele>
        <time>2015-08-05T08:23:27Z</time>
      </trkpt>
      <trkpt lat="44.71025" lon="1.95279">
        <ele>547.392</ele>
        <time>2015-08-05T08:23:47Z</time>
      </trkpt>
      <trkpt lat="44.70952" lon="1.95263">
        <ele>543.597</ele>
        <time>2015-08-05T08:24:07Z</time>
      </trkpt>
      <trkpt lat="44.70896" lon="1.95269">
        <ele>541.423</ele>
        <time>2015-08-05T08:24:27Z</time>
      </trkpt>
      <trkpt lat="44.70825" lon="1.95265">
        <ele>537.825</ele>
        <time>2015-08-05T08:24:47Z</time>
      </trkpt>
      <trkpt lat="44.70681" lon="1.9538">
        <ele>531.908</ele>
        <time>2015-08-05T08:25:07Z</time>
      </trkpt>
      <trkpt lat="44.70629" lon="1.95397">
        <ele>529.055</ele>
        <time>2015-08-05T08:25:27Z</time>
      </trkpt>
      <trkpt lat="44.706" lon="1.95424">
        <ele>526.32</ele>
        <time>2015-08-05T08:25:47Z</time>
      </trkpt>
      <trkpt lat="44.70554" lon="1.95513">
        <ele>525.72</ele>
        <time>2015-08-05T08:26:07Z</time>
      </trkpt>
      <trkpt lat="44.7049" lon="1.95542">
        <ele>521.942</ele>
        <time>2015-08-05T08:26:27Z</time>
      </trkpt>
      <trkpt lat="44.7044" lon="1.956">
        <ele>518.524</ele>
        <time>2015-08-05T08:26:47Z</time>
      </trkpt>
      <trkpt lat="44.70377" lon="1.95736">
        <ele>510.725</ele>
        <time>2015-08-05T08:27:07Z</time>
      </trkpt>
      <trkpt lat="44.70422" lon="1.95773">
        <ele>513.471</ele>
        <time>2015-08-05T08:27:27Z</time>
      </trkpt>
      <trkpt lat="44.70433" lon="1.95871">
        <ele>506.193</ele>
        <time>2015-08-05T08:27:47Z</time>
      </trkpt>
      <trkpt lat="44.70441" lon="1.95909">
        <ele>506.068</ele>
        <time>2015-08-05T08:28:07Z</time>
      </trkpt>
      <trkpt lat="44.70383" lon="1.95991">
        <ele>499.342</ele>
        <time>2015-08-05T08:28:27Z</time>
      </trkpt>
      <trkpt lat="44.70276" lon="1.96179">
        <ele>496.726</ele>
        <time>2015-08-05T08:28:47Z</time>
      </trkpt>
      <trkpt lat="44.70177" lon="1.96189">
        <ele>494.808</ele>
        <time>2015-08-05T08:29:07Z</time>
      </trkpt>
      <trkpt lat="44.70097" lon="1.96192">
        <ele>494.192</ele>
        <time>2015-08-05T08:29:27Z</time>
      </trkpt>
      <trkpt lat="44.70069" lon="1.96241">
        <ele>500.637</ele>
        <time>2015-08-05T08:29:47Z</time>
      </trkpt>
      <trkpt lat="44.70066" lon="1.96285">
        <ele>505.387</ele>
        <time>2015-08-05T08:30:07Z</time>
      </trkpt>
      <trkpt lat="44.70101" lon="1.96325">
        <ele>509.799</ele>
        <time>2015-08-05T08:30:27Z</time>
      </trkpt>
      <trkpt lat="44.70148" lon="1.96362">
        <ele>511.921</ele>
        <time>2015-08-05T08:30:47Z</time>
      </trkpt>
      <trkpt lat="44.70173" lon="1.96402">
        <ele>515.532</ele>
        <time>2015-08-05T08:31:07Z</time>
      </trkpt>
      <trkpt lat="44.70206" lon="1.96382">
        <ele>520.728</ele>
        <time>2015-08-05T08:31:27Z</time>
      </trkpt>
      <trkpt lat="44.70238" lon="1.96404">
        <ele>524.79</ele>
        <time>2015-08-05T08:31:47Z</time>
      </trkpt>
      <trkpt lat="44.70251" lon="1.96429">
        <ele>527.456</ele>
        <time>2015-08-05T08:32:07Z</time>
      </trkpt>
      <trkpt lat="44.70261" lon="1.96526">
        <ele>537.059</ele>
        <time>2015-08-05T08:32:27Z</time>
      </trkpt>
      <trkpt lat="44.7027" lon="1.96547">
        <ele>540.514</ele>
        <time>2015-08-05T08:32:47Z</time>
      </trkpt>
      <trkpt lat="44.70309" lon="1.96558">
        <ele>545.708</ele>
        <time>2015-08-05T08:33:07Z</time>
      </trkpt>
      <trkpt lat="44.70312" lon="1.96602">
        <ele>550.291</ele>
        <time>2015-08-05T08:33:27Z</time>
      </trkpt>
      <trkpt lat="44.70292" lon="1.96623">
        <ele>547.786</ele>
        <time>2015-08-05T08:33:47Z</time>
      </trkpt>
      <trkpt lat="44.7029" lon="1.96639">
        <ele>546.896</ele>
        <time>2015-08-05T08:34:07Z</time>
      </trkpt>
      <trkpt lat="44.70302" lon="1.96659">
        <ele>545.768</ele>
        <time>2015-08-05T08:34:27Z</time>
      </trkpt>
      <trkpt lat="44.70303" lon="1.96773">
        <ele>541.75</ele>
        <time>2015-08-05T08:34:47Z</time>
      </trkpt>
      <trkpt lat="44.7029" lon="1.96842">
        <ele>537.721</ele>
        <time>2015-08-05T08:35:07Z</time>
      </trkpt>
      <trkpt lat="44.70271" lon="1.96907">
        <ele>532.127</ele>
        <time>2015-08-05T08:35:27Z</time>
      </trkpt>
      <trkpt lat="44.70248" lon="1.96961">
        <ele>529.549</ele>
        <time>2015-08-05T08:35:47Z</time>
      </trkpt>
      <trkpt lat="44.70252" lon="1.97073">
        <ele>526.992</ele>
        <time>2015-08-05T08:36:07Z</time>
      </trkpt>
      <trkpt lat="44.70255" lon="1.97129">
        <ele>524.473</ele>
        <time>2015-08-05T08:36:27Z</time>
      </trkpt>
      <trkpt lat="44.70232" lon="1.97206">
        <ele>526.32</ele>
        <time>2015-08-05T08:36:47Z</time>
      </trkpt>
      <trkpt lat="44.70308" lon="1.97231">
        <ele>533.908</ele>
        <time>2015-08-05T08:37:07Z</time>
      </trkpt>
      <trkpt lat="44.70261" lon="1.97267">
        <ele>533.955</ele>
        <time>2015-08-05T08:37:27Z</time>
      </trkpt>
      <trkpt lat="44.70233" lon="1.97332">
        <ele>536.34</ele>
        <time>2015-08-05T08:37:47Z</time>
      </trkpt>
      <trkpt lat="44.702" lon="1.97431">
        <ele>540.98</ele>
        <time>2015-08-05T08:38:07Z</time>
      </trkpt>
      <trkpt lat="44.70151" lon="1.97518">
        <ele>543.512</ele>
        <time>2015-08-05T08:38:27Z</time>
      </trkpt>
      <trkpt lat="44.70104" lon="1.9759">
        <ele>543.034</ele>
        <time>2015-08-05T08:38:47Z</time>
      </trkpt>
      <trkpt lat="44.70063" lon="1.97636">
        <ele>541.555</ele>
        <time>2015-08-05T08:39:07Z</time>
      </trkpt>
      <trkpt lat="44.70015" lon="1.97683">
        <ele>540.851</ele>
        <time>2015-08-05T08:39:27Z</time>
      </trkpt>
      <trkpt lat="44.69982" lon="1.97706">
        <ele>543.453</ele>
        <time>2015-08-05T08:39:47Z</time>
      </trkpt>
      <trkpt lat="44.69921" lon="1.97731">
        <ele>540.865</ele>
        <time>2015-08-05T08:40:07Z</time>
      </trkpt>
      <trkpt lat="44.69917" lon="1.97649">
        <ele>533.468</ele>
        <time>2015-08-05T08:40:27Z</time>
      </trkpt>
      <trkpt lat="44.69919" lon="1.97606">
        <ele>530.214</ele>
        <time>2015-08-05T08:40:47Z</time>
      </trkpt>
      <trkpt lat="44.69886" lon="1.97559">
        <ele>532.008</ele>
        <time>2015-08-05T08:41:07Z</time>
      </trkpt>
      <trkpt lat="44.69821" lon="1.97556">
        <ele>533.242</ele>
        <time>2020-03-06T16:08:37Z</time>
      </trkpt>
      <trkpt lat="44.69786" lon="1.97521">
        <ele>529.927</ele>
        <time>2020-03-06T16:08:57Z</time>
      </trkpt>
      <trkpt lat="44.69739" lon="1.97509">
        <ele>518.477</ele>
        <time>2020-03-06T16:09:17Z</time>
      </trkpt>
      <trkpt lat="44.69702" lon="1.97483">
        <ele>508.729</ele>
        <time>2020-03-06T16:09:37Z</time>
      </trkpt>
      <trkpt lat="44.69671" lon="1.97412">
        <ele>499.951</ele>
        <time>2020-03-06T16:09:57Z</time>
      </trkpt>
      <trkpt lat="44.69654" lon="1.97335">
        <ele>499.332</ele>
        <time>2020-03-06T16:10:17Z</time>
      </trkpt>
      <trkpt lat="44.69625" lon="1.97309">
        <ele>493.528</ele>
        <time>2015-08-05T08:42:47Z</time>
      </trkpt>
      <trkpt lat="44.69525" lon="1.97001">
        <ele>464.73</ele>
        <time>2015-08-05T08:43:07Z</time>
      </trkpt>
      <trkpt lat="44.69477" lon="1.96964">
        <ele>457.237</ele>
        <time>2015-08-05T08:43:27Z</time>
      </trkpt>
      <trkpt lat="44.69431" lon="1.96899">
        <ele>455.149</ele>
        <time>2015-08-05T08:43:47Z</time>
      </trkpt>
      <trkpt lat="44.6938" lon="1.96858">
        <ele>451.713</ele>
        <time>2015-08-05T08:44:07Z</time>
      </trkpt>
      <trkpt lat="44.69351" lon="1.96882">
        <ele>449.208</ele>
        <time>2015-08-05T08:44:27Z</time>
      </trkpt>
      <trkpt lat="44.69298" lon="1.96875">
        <ele>441.219</ele>
        <time>2015-08-05T08:44:47Z</time>
      </trkpt>
      <trkpt lat="44.69292" lon="1.96819">
        <ele>439.384</ele>
        <time>2015-08-05T08:45:07Z</time>
      </trkpt>
      <trkpt lat="44.69246" lon="1.96804">
        <ele>435.234</ele>
        <time>2015-08-05T08:45:27Z</time>
      </trkpt>
      <trkpt lat="44.69225" lon="1.96901">
        <ele>425.086</ele>
        <time>2015-08-05T08:45:47Z</time>
      </trkpt>
      <trkpt lat="44.69293" lon="1.97051">
        <ele>428.498</ele>
        <time>2015-08-05T08:46:07Z</time>
      </trkpt>
      <trkpt lat="44.69256" lon="1.97107">
        <ele>423.239</ele>
        <time>2015-08-05T08:46:27Z</time>
      </trkpt>
      <trkpt lat="44.69257" lon="1.97187">
        <ele>425.765</ele>
        <time>2020-03-06T16:14:37Z</time>
      </trkpt>
      <trkpt lat="44.69242" lon="1.97197">
        <ele>427.257</ele>
        <time>2020-03-06T16:14:57Z</time>
      </trkpt>
      <trkpt lat="44.69181" lon="1.97173">
        <ele>425.172</ele>
        <time>2020-03-06T16:15:17Z</time>
      </trkpt>
      <trkpt lat="44.69086" lon="1.97169">
        <ele>415.913</ele>
        <time>2015-08-05T08:47:07Z</time>
      </trkpt>
      <trkpt lat="44.69019" lon="1.97205">
        <ele>422.714</ele>
        <time>2015-08-05T08:47:27Z</time>
      </trkpt>
      <trkpt lat="44.68959" lon="1.97222">
        <ele>421.308</ele>
        <time>2015-08-05T08:47:47Z</time>
      </trkpt>
      <trkpt lat="44.68927" lon="1.97263">
        <ele>423.133</ele>
        <time>2015-08-05T08:48:07Z</time>
      </trkpt>
      <trkpt lat="44.68912" lon="1.97328">
        <ele>427.938</ele>
        <time>2015-08-05T08:48:27Z</time>
      </trkpt>
      <trkpt lat="44.68922" lon="1.97417">
        <ele>430.968</ele>
        <time>2015-08-05T08:48:47Z</time>
      </trkpt>
      <trkpt lat="44.68918" lon="1.97461">
        <ele>429.38</ele>
        <time>2015-08-05T08:49:07Z</time>
      </trkpt>
      <trkpt lat="44.68885" lon="1.97532">
        <ele>426.632</ele>
        <time>2015-08-05T08:49:27Z</time>
      </trkpt>
      <trkpt lat="44.68883" lon="1.976">
        <ele>432.453</ele>
        <time>2015-08-05T08:49:47Z</time>
      </trkpt>
      <trkpt lat="44.68913" lon="1.97657">
        <ele>435.689</ele>
        <time>2015-08-05T08:50:07Z</time>
      </trkpt>
      <trkpt lat="44.68902" lon="1.97724">
        <ele>434.071</ele>
        <time>2015-08-05T08:50:27Z</time>
      </trkpt>
      <trkpt lat="44.68876" lon="1.97792">
        <ele>433.724</ele>
        <time>2015-08-05T08:50:47Z</time>
      </trkpt>
      <trkpt lat="44.68798" lon="1.97952">
        <ele>428.604</ele>
        <time>2015-08-05T08:51:07Z</time>
      </trkpt>
      <trkpt lat="44.68772" lon="1.98003">
        <ele>428.514</ele>
        <time>2015-08-05T08:51:27Z</time>
      </trkpt>
      <trkpt lat="44.6875" lon="1.98075">
        <ele>428.408</ele>
        <time>2015-08-05T08:51:47Z</time>
      </trkpt>
      <trkpt lat="44.68711" lon="1.98137">
        <ele>421.828</ele>
        <time>2015-08-05T08:52:07Z</time>
      </trkpt>
      <trkpt lat="44.68695" lon="1.9819">
        <ele>418.493</ele>
        <time>2015-08-05T08:52:27Z</time>
      </trkpt>
      <trkpt lat="44.68696" lon="1.98297">
        <ele>416.583</ele>
        <time>2015-08-05T08:52:47Z</time>
      </trkpt>
      <trkpt lat="44.6866" lon="1.98227">
        <ele>412.615</ele>
        <time>2015-08-05T08:53:07Z</time>
      </trkpt>
      <trkpt lat="44.68637" lon="1.98205">
        <ele>411.127</ele>
        <time>2015-08-05T08:53:27Z</time>
      </trkpt>
      <trkpt lat="44.68613" lon="1.98205">
        <ele>406.328</ele>
        <time>2015-08-05T08:53:47Z</time>
      </trkpt>
      <trkpt lat="44.68551" lon="1.98238">
        <ele>399.114</ele>
        <time>2015-08-05T08:54:07Z</time>
      </trkpt>
      <trkpt lat="44.68477" lon="1.98238">
        <ele>391.446</ele>
        <time>2015-08-05T08:54:27Z</time>
      </trkpt>
      <trkpt lat="44.68416" lon="1.98205">
        <ele>383.612</ele>
        <time>2015-08-05T08:54:47Z</time>
      </trkpt>
      <trkpt lat="44.68325" lon="1.98216">
        <ele>371.732</ele>
        <time>2015-08-05T08:55:07Z</time>
      </trkpt>
      <trkpt lat="44.68268" lon="1.98197">
        <ele>366.105</ele>
        <time>2015-08-05T08:55:27Z</time>
      </trkpt>
      <trkpt lat="44.68244" lon="1.98194">
        <ele>365.308</ele>
        <time>2015-08-05T08:55:47Z</time>
      </trkpt>
      <trkpt lat="44.68209" lon="1.98168">
        <ele>358.797</ele>
        <time>2015-08-05T08:56:07Z</time>
      </trkpt>
      <trkpt lat="44.68161" lon="1.98195">
        <ele>353.492</ele>
        <time>2015-08-05T08:56:27Z</time>
      </trkpt>
      <trkpt lat="44.68137" lon="1.98272">
        <ele>349.162</ele>
        <time>2015-08-05T08:56:47Z</time>
      </trkpt>
      <trkpt lat="44.68137" lon="1.9831">
        <ele>346.544</ele>
        <time>2015-08-05T08:57:07Z</time>
      </trkpt>
      <trkpt lat="44.68147" lon="1.98337">
        <ele>344.936</ele>
        <time>2015-08-05T08:57:27Z</time>
      </trkpt>
      <trkpt lat="44.68183" lon="1.98349">
        <ele>344.947</ele>
        <time>2015-08-05T08:57:47Z</time>
      </trkpt>
      <trkpt lat="44.68183" lon="1.98383">
        <ele>342.873</ele>
        <time>2015-08-05T08:58:07Z</time>
      </trkpt>
      <trkpt lat="44.68159" lon="1.9841">
        <ele>341.495</ele>
        <time>2015-08-05T08:58:27Z</time>
      </trkpt>
      <trkpt lat="44.68141" lon="1.98457">
        <ele>343.075</ele>
        <time>2015-08-05T08:58:47Z</time>
      </trkpt>
      <trkpt lat="44.68082" lon="1.9846">
        <ele>343.328</ele>
        <time>2015-08-05T08:59:07Z</time>
      </trkpt>
      <trkpt lat="44.68024" lon="1.98478">
        <ele>344.22</ele>
        <time>2015-08-05T08:59:27Z</time>
      </trkpt>
      <trkpt lat="44.67999" lon="1.98477">
        <ele>342.708</ele>
        <time>2015-08-05T08:59:47Z</time>
      </trkpt>
      <trkpt lat="44.67976" lon="1.98493">
        <ele>344.793</ele>
        <time>2015-08-05T09:00:07Z</time>
      </trkpt>
      <trkpt lat="44.67918" lon="1.98512">
        <ele>341.188</ele>
        <time>2015-08-05T09:00:27Z</time>
      </trkpt>
      <trkpt lat="44.67898" lon="1.98528">
        <ele>339.388</ele>
        <time>2015-08-05T09:00:47Z</time>
      </trkpt>
      <trkpt lat="44.67905" lon="1.98562">
        <ele>342.33</ele>
        <time>2015-08-05T09:01:07Z</time>
      </trkpt>
      <trkpt lat="44.6793" lon="1.98587">
        <ele>346.392</ele>
        <time>2015-08-05T09:01:27Z</time>
      </trkpt>
      <trkpt lat="44.6795" lon="1.98622">
        <ele>347.713</ele>
        <time>2015-08-05T09:01:47Z</time>
      </trkpt>
      <trkpt lat="44.68019" lon="1.98677">
        <ele>355.049</ele>
        <time>2015-08-05T09:02:07Z</time>
      </trkpt>
      <trkpt lat="44.68033" lon="1.98696">
        <ele>356.131</ele>
        <time>2015-08-05T09:02:27Z</time>
      </trkpt>
      <trkpt lat="44.68027" lon="1.98743">
        <ele>353.435</ele>
        <time>2015-08-05T09:02:47Z</time>
      </trkpt>
      <trkpt lat="44.67986" lon="1.9879">
        <ele>346.386</ele>
        <time>2015-08-05T09:03:07Z</time>
      </trkpt>
      <trkpt lat="44.67973" lon="1.98813">
        <ele>344.014</ele>
        <time>2015-08-05T09:03:27Z</time>
      </trkpt>
      <trkpt lat="44.67981" lon="1.98901">
        <ele>348.108</ele>
        <time>2015-08-05T09:03:47Z</time>
      </trkpt>
      <trkpt lat="44.67988" lon="1.98942">
        <ele>350.499</ele>
        <time>2015-08-05T09:04:07Z</time>
      </trkpt>
      <trkpt lat="44.67994" lon="1.98979">
        <ele>349.684</ele>
        <time>2015-08-05T09:04:27Z</time>
      </trkpt>
      <trkpt lat="44.68007" lon="1.99009">
        <ele>349.344</ele>
        <time>2015-08-05T09:04:47Z</time>
      </trkpt>
      <trkpt lat="44.68042" lon="1.99036">
        <ele>356.516</ele>
        <time>2015-08-05T09:05:07Z</time>
      </trkpt>
      <trkpt lat="44.68095" lon="1.9908">
        <ele>360.988</ele>
        <time>2015-08-05T09:05:27Z</time>
      </trkpt>
      <trkpt lat="44.68124" lon="1.99094">
        <ele>369.089</ele>
        <time>2015-08-05T09:05:47Z</time>
      </trkpt>
      <trkpt lat="44.68146" lon="1.9917">
        <ele>366.335</ele>
        <time>2015-08-05T09:06:07Z</time>
      </trkpt>
      <trkpt lat="44.68176" lon="1.99213">
        <ele>367.747</ele>
        <time>2015-08-05T09:06:27Z</time>
      </trkpt>
      <trkpt lat="44.6822" lon="1.99233">
        <ele>372.633</ele>
        <time>2015-08-05T09:06:47Z</time>
      </trkpt>
      <trkpt lat="44.68235" lon="1.99292">
        <ele>362.623</ele>
        <time>2015-08-05T09:07:07Z</time>
      </trkpt>
      <trkpt lat="44.68228" lon="1.99332">
        <ele>353.915</ele>
        <time>2015-08-05T09:07:27Z</time>
      </trkpt>
      <trkpt lat="44.68265" lon="1.99339">
        <ele>355.008</ele>
        <time>2015-08-05T09:07:47Z</time>
      </trkpt>
      <trkpt lat="44.68288" lon="1.99365">
        <ele>345.559</ele>
        <time>2015-08-05T09:08:07Z</time>
      </trkpt>
      <trkpt lat="44.68322" lon="1.99376">
        <ele>336.824</ele>
        <time>2015-08-05T09:08:27Z</time>
      </trkpt>
      <trkpt lat="44.68328" lon="1.99416">
        <ele>327.444</ele>
        <time>2015-08-05T09:08:47Z</time>
      </trkpt>
      <trkpt lat="44.68325" lon="1.99438">
        <ele>325.516</ele>
        <time>2015-08-05T09:09:07Z</time>
      </trkpt>
      <trkpt lat="44.68313" lon="1.99466">
        <ele>325.458</ele>
        <time>2015-08-05T09:09:27Z</time>
      </trkpt>
      <trkpt lat="44.6829" lon="1.99474">
        <ele>324.489</ele>
        <time>2015-08-05T09:09:47Z</time>
      </trkpt>
      <trkpt lat="44.68273" lon="1.99526">
        <ele>324.575</ele>
        <time>2015-08-05T09:10:07Z</time>
      </trkpt>
      <trkpt lat="44.6826" lon="1.99553">
        <ele>330.497</ele>
        <time>2015-08-05T09:10:27Z</time>
      </trkpt>
      <trkpt lat="44.68194" lon="1.99565">
        <ele>328.415</ele>
        <time>2015-08-05T09:10:47Z</time>
      </trkpt>
      <trkpt lat="44.68173" lon="1.99565">
        <ele>329.265</ele>
        <time>2015-08-05T09:11:07Z</time>
      </trkpt>
      <trkpt lat="44.68137" lon="1.99585">
        <ele>340.811</ele>
        <time>2015-08-05T09:11:27Z</time>
      </trkpt>
      <trkpt lat="44.68118" lon="1.99581">
        <ele>343.408</ele>
        <time>2015-08-05T09:11:47Z</time>
      </trkpt>
      <trkpt lat="44.68075" lon="1.99532">
        <ele>348.777</ele>
        <time>2020-03-06T16:40:37Z</time>
      </trkpt>
      <trkpt lat="44.68054" lon="1.99483">
        <ele>344.762</ele>
        <time>2020-03-06T16:40:57Z</time>
      </trkpt>
      <trkpt lat="44.68033" lon="1.99464">
        <ele>347.692</ele>
        <time>2020-03-06T16:41:17Z</time>
      </trkpt>
      <trkpt lat="44.67983" lon="1.99445">
        <ele>357.944</ele>
        <time>2020-03-06T16:41:37Z</time>
      </trkpt>
      <trkpt lat="44.67966" lon="1.99436">
        <ele>360.066</ele>
        <time>2020-03-06T16:41:57Z</time>
      </trkpt>
      <trkpt lat="44.67945" lon="1.99454">
        <ele>366.217</ele>
        <time>2020-03-06T16:42:17Z</time>
      </trkpt>
      <trkpt lat="44.67937" lon="1.99495">
        <ele>367.143</ele>
        <time>2020-03-06T16:42:37Z</time>
      </trkpt>
      <trkpt lat="44.67962" lon="1.99518">
        <ele>367.485</ele>
        <time>2015-08-05T09:13:47Z</time>
      </trkpt>
      <trkpt lat="44.67977" lon="1.99541">
        <ele>367.3</ele>
      </trkpt>
      <trkpt lat="44.67994" lon="1.99569">
        <ele>370.9</ele>
      </trkpt>
      <trkpt lat="44.67988" lon="1.99575">
        <ele>371.1</ele>
      </trkpt>
    </trkseg>
  </trk>
</gpx>